createdAt,value
2019-04-10T00:00:37.353Z,9.57
2019-04-10T00:03:06.482Z,6.47
2019-04-10T00:05:36.086Z,5.60
2019-04-10T00:08:06.023Z,6.33
2019-04-10T00:10:34.726Z,7.07
2019-04-10T00:13:04.505Z,7.10
2019-04-10T00:15:33.035Z,6.93
2019-04-10T00:18:01.943Z,7.50
2019-04-10T00:20:30.632Z,7.80
2019-04-10T00:22:59.066Z,5.63
2019-04-10T00:25:28.420Z,5.70
2019-04-10T00:27:57.025Z,7.40
2019-04-10T00:30:25.440Z,6.13
2019-04-10T00:32:54.417Z,8.10
2019-04-10T00:35:23.577Z,9.43
2019-04-10T00:37:53.718Z,6.37
2019-04-10T00:40:22.145Z,7.07
2019-04-10T00:42:51.531Z,7.83
2019-04-10T00:45:20.314Z,7.20
2019-04-10T00:47:48.747Z,7.73
2019-04-10T00:50:18.179Z,8.70
2019-04-10T00:52:46.705Z,5.80
2019-04-10T00:55:15.345Z,5.70
2019-04-10T00:57:44.203Z,6.30
2019-04-10T01:00:12.878Z,6.77
2019-04-10T01:02:41.258Z,9.13
2019-04-10T01:05:10.999Z,9.57
2019-04-10T01:07:42.744Z,10.47
2019-04-10T01:10:10.494Z,6.90
2019-04-10T01:12:38.984Z,10.30
2019-04-10T01:15:08.342Z,11.10
2019-04-10T01:17:36.879Z,5.43
2019-04-10T01:20:07.159Z,7.93
2019-04-10T01:22:35.622Z,6.70
2019-04-10T01:25:06.134Z,8.67
2019-04-10T01:27:34.794Z,9.00
2019-04-10T01:30:04.297Z,6.70
2019-04-10T01:32:34.164Z,8.67
2019-04-10T01:35:02.746Z,5.60
2019-04-10T01:37:31.210Z,5.97
2019-04-10T01:39:59.655Z,7.23
2019-04-10T01:42:28.524Z,9.50
2019-04-10T01:44:57.333Z,8.83
2019-04-10T01:47:26.930Z,6.37
2019-04-10T01:49:55.826Z,7.13
2019-04-10T01:52:24.798Z,7.67
2019-04-10T01:54:56.183Z,9.63
2019-04-10T01:57:24.600Z,5.57
2019-04-10T01:59:53.032Z,6.53
2019-04-10T02:02:23.476Z,6.17
2019-04-10T02:04:53.708Z,5.70
2019-04-10T02:07:23.033Z,8.40
2019-04-10T02:09:51.889Z,6.47
2019-04-10T02:12:20.740Z,5.77
2019-04-10T02:14:49.346Z,7.87
2019-04-10T02:17:17.840Z,7.43
2019-04-10T02:19:46.269Z,6.73
2019-04-10T02:22:14.717Z,6.23
2019-04-10T02:24:43.904Z,8.13
2019-04-10T02:27:12.354Z,10.73
2019-04-10T02:29:41.953Z,6.43
2019-04-10T02:32:12.047Z,9.43
2019-04-10T02:34:41.486Z,8.60
2019-04-10T02:37:11.070Z,5.70
2019-04-10T02:39:46.172Z,6.40
2019-04-10T02:42:10.169Z,9.33
2019-04-10T02:44:38.814Z,6.83
2019-04-10T02:47:07.282Z,8.37
2019-04-10T02:49:36.442Z,5.80
2019-04-10T02:52:06.644Z,9.37
2019-04-10T02:54:35.768Z,8.53
2019-04-10T02:57:05.508Z,5.73
2019-04-10T02:59:35.167Z,5.73
2019-04-10T03:02:04.290Z,8.73
2019-04-10T03:04:33.136Z,6.37
2019-04-10T03:07:02.059Z,9.30
2019-04-10T03:09:46.029Z,8.43
2019-04-10T03:12:01.273Z,7.87
2019-04-10T03:14:30.095Z,8.00
2019-04-10T03:16:59.788Z,7.10
2019-04-10T03:19:28.382Z,10.80
2019-04-10T03:21:57.690Z,7.63
2019-04-10T03:24:27.452Z,5.67
2019-04-10T03:26:56.221Z,7.03
2019-04-10T03:29:24.643Z,7.27
2019-04-10T03:31:55.422Z,6.77
2019-04-10T03:34:28.085Z,10.17
2019-04-10T03:36:56.060Z,7.23
2019-04-10T03:39:25.686Z,6.47
2019-04-10T03:41:54.742Z,8.90
2019-04-10T03:44:23.648Z,6.07
2019-04-10T03:46:53.782Z,8.23
2019-04-10T03:49:23.335Z,8.93
2019-04-10T03:51:52.684Z,9.10
2019-04-10T03:54:21.469Z,6.13
2019-04-10T03:56:50.044Z,6.87
2019-04-10T03:59:18.497Z,8.30
2019-04-10T04:01:47.238Z,8.47
2019-04-10T04:04:17.416Z,7.47
2019-04-10T04:06:46.092Z,8.43
2019-04-10T04:09:15.059Z,6.77
2019-04-10T04:11:44.633Z,11.37
2019-04-10T04:14:13.184Z,7.97
2019-04-10T04:16:41.608Z,8.50
2019-04-10T04:19:10.186Z,9.87
2019-04-10T04:21:39.622Z,10.50
2019-04-10T04:24:09.383Z,8.23
2019-04-10T04:26:38.026Z,7.80
2019-04-10T04:29:07.425Z,8.73
2019-04-10T04:31:36.274Z,9.13
2019-04-10T04:34:04.793Z,9.27
2019-04-10T04:36:33.232Z,6.87
2019-04-10T04:39:13.532Z,10.87
2019-04-10T04:41:31.907Z,9.40
2019-04-10T04:44:00.335Z,11.67
2019-04-10T04:46:28.863Z,9.47
2019-04-10T04:48:57.745Z,8.40
2019-04-10T04:51:27.296Z,9.73
2019-04-10T04:53:56.917Z,7.57
2019-04-10T04:56:26.138Z,8.30
2019-04-10T04:58:55.764Z,9.73
2019-04-10T05:01:24.525Z,12.07
2019-04-10T05:03:52.945Z,10.63
2019-04-10T05:06:22.266Z,7.10
2019-04-10T05:08:51.042Z,8.23
2019-04-10T05:11:20.448Z,9.00
2019-04-10T05:13:49.232Z,7.80
2019-04-10T05:16:18.638Z,9.27
2019-04-10T05:18:47.710Z,11.53
2019-04-10T05:21:17.064Z,10.13
2019-04-10T05:23:46.819Z,8.27
2019-04-10T05:26:16.538Z,12.80
2019-04-10T05:28:45.355Z,8.50
2019-04-10T05:31:13.889Z,10.00
2019-04-10T05:33:43.623Z,10.77
2019-04-10T05:36:13.196Z,12.17
2019-04-10T05:38:43.987Z,10.17
2019-04-10T05:41:13.356Z,12.43
2019-04-10T05:43:42.590Z,15.23
2019-04-10T05:46:12.302Z,12.90
2019-04-10T05:48:41.914Z,9.93
2019-04-10T05:51:10.460Z,9.50
2019-04-10T05:53:38.895Z,10.73
2019-04-10T05:56:07.383Z,10.97
2019-04-10T05:58:35.802Z,12.10
2019-04-10T06:01:06.021Z,10.57
2019-04-10T06:03:34.575Z,12.43
2019-04-10T06:06:04.096Z,11.00
2019-04-10T06:08:33.319Z,14.63
2019-04-10T06:11:01.894Z,11.80
2019-04-10T06:13:30.438Z,10.87
2019-04-10T06:15:59.362Z,12.63
2019-04-10T06:18:29.012Z,11.93
2019-04-10T06:20:58.710Z,15.40
2019-04-10T06:23:27.618Z,10.53
2019-04-10T06:25:56.378Z,11.13
2019-04-10T06:28:26.220Z,11.33
2019-04-10T06:30:54.993Z,11.10
2019-04-10T06:33:24.146Z,12.37
2019-04-10T06:35:53.685Z,13.90
2019-04-10T06:38:23.108Z,14.00
2019-04-10T06:40:52.377Z,9.90
2019-04-10T06:43:22.233Z,10.47
2019-04-10T06:45:52.313Z,11.87
2019-04-10T06:48:21.160Z,10.57
2019-04-10T06:50:49.579Z,8.93
2019-04-10T06:53:18.705Z,13.73
2019-04-10T06:55:47.206Z,11.67
2019-04-10T06:58:18.672Z,9.93
2019-04-10T07:00:51.665Z,11.30
2019-04-10T07:03:17.338Z,13.50
2019-04-10T07:06:00.447Z,9.93
2019-04-10T07:08:19.000Z,11.53
2019-04-10T07:10:54.177Z,12.40
2019-04-10T07:13:17.538Z,12.47
2019-04-10T07:15:46.962Z,11.20
2019-04-10T07:18:18.562Z,10.77
2019-04-10T07:20:46.175Z,14.33
2019-04-10T07:23:22.463Z,14.93
2019-04-10T07:25:47.260Z,11.37
2019-04-10T07:28:17.407Z,13.10
2019-04-10T07:30:46.050Z,13.67
2019-04-10T07:33:16.673Z,11.37
2019-04-10T07:35:44.657Z,12.03
2019-04-10T07:38:13.953Z,15.40
2019-04-10T07:40:42.929Z,11.50
2019-04-10T07:43:11.405Z,12.60
2019-04-10T07:45:39.896Z,15.27
2019-04-10T07:48:08.733Z,10.87
2019-04-10T07:50:37.333Z,10.73
2019-04-10T07:53:06.157Z,13.37
2019-04-10T07:55:34.805Z,13.20
2019-04-10T07:58:03.227Z,11.37
2019-04-10T08:00:32.043Z,10.93
2019-04-10T08:03:00.554Z,15.07
2019-04-10T08:05:29.581Z,15.03
2019-04-10T08:07:59.081Z,12.27
2019-04-10T08:10:28.428Z,10.83
2019-04-10T08:12:58.083Z,10.27
2019-04-10T08:15:27.324Z,10.07
2019-04-10T08:17:56.162Z,10.93
2019-04-10T08:20:24.665Z,14.93
2019-04-10T08:22:53.322Z,11.07
2019-04-10T08:25:22.811Z,10.20
2019-04-10T08:27:52.262Z,11.83
2019-04-10T08:30:20.936Z,11.87
2019-04-10T08:32:57.149Z,11.00
2019-04-10T08:35:19.537Z,14.77
2019-04-10T08:37:48.702Z,11.77
2019-04-10T08:40:17.645Z,12.03
2019-04-10T08:42:47.501Z,12.87
2019-04-10T08:45:16.817Z,14.17
2019-04-10T08:47:45.380Z,11.80
2019-04-10T08:50:13.988Z,12.43
2019-04-10T08:52:42.499Z,15.27
2019-04-10T08:55:10.986Z,12.40
2019-04-10T08:57:39.463Z,13.30
2019-04-10T09:00:08.540Z,12.80
2019-04-10T09:02:38.139Z,10.77
2019-04-10T09:05:11.249Z,11.57
2019-04-10T09:07:40.157Z,11.13
2019-04-10T09:10:08.882Z,14.07
2019-04-10T09:12:37.326Z,11.67
2019-04-10T09:15:07.835Z,10.93
2019-04-10T09:17:37.623Z,10.97
2019-04-10T09:20:08.793Z,10.53
2019-04-10T09:23:04.411Z,13.77
2019-04-10T09:25:09.118Z,9.97
2019-04-10T09:27:37.985Z,14.40
2019-04-10T09:30:08.811Z,9.63
2019-04-10T09:32:37.574Z,13.67
2019-04-10T09:35:08.792Z,10.23
2019-04-10T09:37:38.065Z,9.77
2019-04-10T09:40:09.008Z,11.30
2019-04-10T09:42:37.597Z,12.50
2019-04-10T09:45:06.967Z,10.50
2019-04-10T09:47:35.798Z,10.90
2019-04-10T09:50:05.876Z,8.90
2019-04-10T09:52:35.481Z,8.67
2019-04-10T09:55:07.373Z,8.20
2019-04-10T09:57:36.727Z,9.40
2019-04-10T10:00:07.673Z,8.43
2019-04-10T10:02:36.110Z,8.27
2019-04-10T10:05:06.318Z,11.03
2019-04-10T10:07:34.873Z,7.80
2019-04-10T10:10:05.025Z,9.47
2019-04-10T10:12:34.362Z,8.97
2019-04-10T10:15:03.756Z,11.47
2019-04-10T10:17:32.826Z,7.70
2019-04-10T10:20:01.913Z,9.30
2019-04-10T10:22:30.939Z,7.93
2019-04-10T10:25:00.533Z,8.47
2019-04-10T10:27:30.082Z,8.57
2019-04-10T10:30:02.086Z,8.53
2019-04-10T10:32:30.933Z,6.77
2019-04-10T10:34:59.390Z,7.17
2019-04-10T10:37:28.408Z,9.37
2019-04-10T10:39:57.122Z,16.83
2019-04-10T10:42:25.659Z,8.60
2019-04-10T10:44:54.452Z,9.10
2019-04-10T10:47:24.127Z,10.00
2019-04-10T10:49:52.887Z,10.87
2019-04-10T10:52:21.626Z,8.57
2019-04-10T10:54:50.037Z,7.10
2019-04-10T10:57:19.355Z,11.37
2019-04-10T10:59:47.918Z,7.63
2019-04-10T11:02:17.129Z,7.40
2019-04-10T11:04:45.689Z,8.27
2019-04-10T11:07:14.491Z,12.77
2019-04-10T11:09:44.418Z,7.33
2019-04-10T11:12:13.623Z,8.50
2019-04-10T11:14:42.098Z,8.53
2019-04-10T11:17:11.898Z,10.80
2019-04-10T11:19:41.245Z,7.60
2019-04-10T11:22:12.698Z,7.93
2019-04-10T11:24:41.268Z,6.00
2019-04-10T11:27:11.860Z,8.00
2019-04-10T11:29:42.559Z,7.83
2019-04-10T11:32:11.758Z,8.93
2019-04-10T11:34:40.794Z,8.37
2019-04-10T11:37:23.105Z,8.40
2019-04-10T11:42:10.202Z,9.73
2019-04-10T11:44:39.679Z,9.13
2019-04-10T11:47:10.495Z,6.20
2019-04-10T11:49:42.870Z,7.90
2019-04-10T11:52:10.557Z,7.30
2019-04-10T11:54:41.355Z,9.27
2019-04-10T11:57:10.122Z,8.37
2019-04-10T11:59:41.050Z,6.40
2019-04-10T12:02:10.290Z,6.40
2019-04-10T12:04:48.128Z,7.13
2019-04-10T12:07:36.038Z,10.13
2019-04-10T12:12:11.226Z,9.13
2019-04-10T12:14:39.865Z,6.30
2019-04-10T12:17:09.669Z,11.73
2019-04-10T12:19:38.387Z,7.37
2019-04-10T12:22:07.554Z,7.00
2019-04-10T12:24:36.396Z,8.63
2019-04-10T12:27:04.942Z,9.93
2019-04-10T12:29:33.469Z,7.60
2019-04-10T12:32:01.907Z,10.43
2019-04-10T12:34:30.347Z,7.27
2019-04-10T12:36:58.919Z,6.90
2019-04-10T12:39:28.006Z,8.87
2019-04-10T12:41:57.517Z,6.97
2019-04-10T12:44:26.683Z,8.20
2019-04-10T12:46:55.142Z,6.80
2019-04-10T12:49:23.603Z,11.10
2019-04-10T12:51:52.125Z,7.83
2019-04-10T12:54:21.603Z,6.40
2019-04-10T12:56:50.566Z,7.97
2019-04-10T12:59:19.426Z,7.73
2019-04-10T13:01:48.969Z,6.60
2019-04-10T13:04:18.024Z,8.10
2019-04-10T13:06:46.676Z,6.80
2019-04-10T13:09:15.965Z,9.07
2019-04-10T13:11:44.889Z,7.17
2019-04-10T13:14:13.390Z,10.10
2019-04-10T13:16:42.850Z,6.80
2019-04-10T13:19:11.534Z,9.90
2019-04-10T13:21:39.963Z,8.37
2019-04-10T13:24:09.137Z,10.53
2019-04-10T13:26:37.952Z,6.97
2019-04-10T13:29:06.455Z,7.90
2019-04-10T13:31:35.145Z,9.37
2019-04-10T13:34:04.852Z,8.03
2019-04-10T13:36:33.649Z,7.10
2019-04-10T13:39:02.381Z,6.60
2019-04-10T13:41:31.039Z,7.90
2019-04-10T13:44:00.306Z,7.00
2019-04-10T13:46:29.015Z,8.50
2019-04-10T13:48:57.691Z,7.13
2019-04-10T13:51:26.113Z,6.20
2019-04-10T13:53:55.250Z,7.77
2019-04-10T13:56:25.278Z,7.63
2019-04-10T13:58:53.923Z,8.63
2019-04-10T14:01:25.207Z,6.57
2019-04-10T14:03:54.449Z,8.17
2019-04-10T14:06:23.064Z,6.37
2019-04-10T14:09:08.150Z,8.37
2019-04-10T14:11:22.175Z,8.10
2019-04-10T14:13:51.830Z,7.03
2019-04-10T14:16:21.019Z,8.43
2019-04-10T14:18:50.780Z,7.83
2019-04-10T14:21:20.667Z,9.17
2019-04-10T14:23:49.437Z,7.33
2019-04-10T14:26:42.000Z,6.53
2019-04-10T14:29:02.271Z,5.70
2019-04-10T14:31:32.291Z,6.00
2019-04-10T14:34:01.673Z,7.17
2019-04-10T14:36:30.318Z,6.47
2019-04-10T14:39:10.212Z,9.17
2019-04-10T14:41:29.660Z,6.63
2019-04-10T14:43:58.094Z,6.10
2019-04-10T14:46:26.633Z,6.63
2019-04-10T14:48:55.219Z,4.87
2019-04-10T14:51:25.073Z,5.70
2019-04-10T14:53:53.568Z,9.07
2019-04-10T14:56:22.164Z,4.70
2019-04-10T14:58:53.599Z,4.27
2019-04-10T15:01:22.186Z,5.40
2019-04-10T15:03:50.849Z,4.80
2019-04-10T15:06:21.513Z,6.23
2019-04-10T15:08:50.286Z,4.20
2019-04-10T15:11:19.376Z,8.47
2019-04-10T15:13:48.731Z,5.07
2019-04-10T15:16:17.539Z,4.03
2019-04-10T15:18:46.107Z,6.37
2019-04-10T15:21:14.822Z,4.10
2019-04-10T15:23:43.329Z,6.50
2019-04-10T15:26:13.506Z,8.60
2019-04-10T15:28:43.614Z,5.63
2019-04-10T15:31:12.234Z,9.47
2019-04-10T15:33:42.756Z,5.27
2019-04-10T15:36:12.951Z,4.53
2019-04-10T15:38:42.155Z,4.40
2019-04-10T15:41:10.797Z,4.03
2019-04-10T15:43:39.370Z,4.30
2019-04-10T15:46:08.736Z,6.67
2019-04-10T15:48:37.705Z,4.27
2019-04-10T15:51:06.432Z,3.60
2019-04-10T15:53:34.991Z,5.10
2019-04-10T15:56:03.569Z,5.33
2019-04-10T15:58:33.281Z,3.77
2019-04-10T16:01:02.457Z,4.17
2019-04-10T16:03:30.866Z,5.13
2019-04-10T16:05:59.299Z,4.10
2019-04-10T16:08:28.820Z,6.13
2019-04-10T16:10:58.945Z,5.87
2019-04-10T16:13:36.656Z,5.30
2019-04-10T16:16:07.306Z,4.53
2019-04-10T16:18:36.666Z,6.63
2019-04-10T16:21:06.296Z,6.33
2019-04-10T16:23:42.564Z,3.77
2019-04-10T16:26:11.195Z,4.37
2019-04-10T16:28:39.760Z,5.47
2019-04-10T16:31:08.180Z,4.23
2019-04-10T16:33:36.629Z,7.17
2019-04-10T16:36:05.376Z,6.97
2019-04-10T16:38:33.879Z,7.53
2019-04-10T16:41:02.795Z,4.90
2019-04-10T16:43:32.645Z,5.57
2019-04-10T16:46:01.402Z,7.20
2019-04-10T16:48:29.873Z,4.87
2019-04-10T16:51:01.621Z,8.20
2019-04-10T16:53:30.230Z,5.13
2019-04-10T16:55:59.053Z,5.73
2019-04-10T16:58:27.659Z,4.30
2019-04-10T17:00:56.075Z,4.77
2019-04-10T17:03:25.363Z,4.03
2019-04-10T17:05:54.002Z,5.10
2019-04-10T17:08:22.413Z,5.80
2019-04-10T17:10:52.383Z,7.10
2019-04-10T17:13:21.103Z,7.03
2019-04-10T17:15:50.325Z,3.80
2019-04-10T17:18:21.148Z,5.13
2019-04-10T17:20:50.928Z,4.97
2019-04-10T17:23:20.566Z,5.50
2019-04-10T17:25:50.660Z,4.40
2019-04-10T17:28:22.025Z,5.50
2019-04-10T17:30:49.854Z,6.77
2019-04-10T17:33:18.678Z,6.47
2019-04-10T17:35:47.559Z,3.93
2019-04-10T17:38:16.221Z,4.53
2019-04-10T17:40:50.546Z,5.80
2019-04-10T17:43:15.056Z,3.50
2019-04-10T17:45:44.863Z,11.57
2019-04-10T17:48:14.139Z,5.17
2019-04-10T17:50:43.762Z,5.70
2019-04-10T17:53:13.350Z,4.27
2019-04-10T17:55:44.066Z,7.50
2019-04-10T17:58:13.671Z,4.80
2019-04-10T18:00:45.312Z,4.97
2019-04-10T18:03:17.983Z,4.03
2019-04-10T18:05:44.732Z,6.23
2019-04-10T18:08:13.509Z,6.13
2019-04-10T18:10:51.154Z,6.23
2019-04-10T18:13:18.804Z,4.10
2019-04-10T18:15:48.365Z,6.90
2019-04-10T18:18:17.769Z,3.60
2019-04-10T18:20:46.704Z,4.50
2019-04-10T18:23:15.547Z,9.73
2019-04-10T18:25:44.460Z,4.17
2019-04-10T18:28:13.867Z,6.87
2019-04-10T18:30:42.441Z,7.93
2019-04-10T18:33:12.089Z,8.40
2019-04-10T18:35:40.969Z,5.13
2019-04-10T18:38:09.485Z,7.20
2019-04-10T18:40:39.201Z,4.23
2019-04-10T18:43:07.989Z,6.00
2019-04-10T18:45:37.938Z,5.67
2019-04-10T18:48:08.266Z,4.73
2019-04-10T18:50:37.245Z,4.20
2019-04-10T18:53:06.099Z,5.67
2019-04-10T18:55:34.659Z,7.47
2019-04-10T18:58:05.413Z,4.90
2019-04-10T19:00:52.167Z,6.50
2019-04-10T19:03:25.947Z,5.33
2019-04-10T19:06:00.310Z,4.90
2019-04-10T19:08:30.072Z,4.70
2019-04-10T19:11:10.561Z,7.60
2019-04-10T19:13:29.108Z,4.93
2019-04-10T19:15:57.561Z,5.07
2019-04-10T19:18:25.998Z,7.73
2019-04-10T19:20:56.579Z,8.17
2019-04-10T19:23:25.492Z,7.73
2019-04-10T19:25:54.701Z,6.83
2019-04-10T19:28:32.225Z,5.70
2019-04-10T19:31:11.888Z,6.77
2019-04-10T19:33:37.367Z,5.43
2019-04-10T19:36:06.263Z,4.97
2019-04-10T19:38:35.656Z,5.10
2019-04-10T19:41:04.794Z,7.10
2019-04-10T19:43:34.667Z,6.13
2019-04-10T19:46:06.212Z,4.83
2019-04-10T19:48:35.222Z,6.73
2019-04-10T19:51:03.765Z,6.30
2019-04-10T19:53:33.757Z,9.13
2019-04-10T19:56:02.465Z,7.23
2019-04-10T19:58:32.465Z,7.67
2019-04-10T20:01:01.122Z,7.50
2019-04-10T20:03:29.949Z,9.87
2019-04-10T20:06:00.302Z,6.97
2019-04-10T20:08:29.025Z,8.43
2019-04-10T20:10:58.237Z,5.83
2019-04-10T20:13:27.020Z,7.33
2019-04-10T20:15:55.666Z,7.00
2019-04-10T20:18:24.573Z,8.23
2019-04-10T20:20:53.370Z,9.40
2019-04-10T20:23:21.863Z,12.17
2019-04-10T20:25:50.562Z,8.17
2019-04-10T20:28:20.612Z,8.60
2019-04-10T20:30:52.235Z,9.00
2019-04-10T20:33:20.789Z,11.20
2019-04-10T20:35:50.770Z,9.53
2019-04-10T20:38:27.256Z,10.00
2019-04-10T20:44:23.114Z,11.70
2019-04-10T20:46:52.778Z,10.27
2019-04-10T20:49:22.480Z,9.77
2019-04-10T20:51:51.397Z,12.23
2019-04-10T20:54:20.387Z,9.80
2019-04-10T20:56:50.646Z,10.50
2019-04-10T20:59:26.461Z,9.63
2019-04-10T21:01:55.803Z,12.27
2019-04-10T21:04:25.440Z,10.67
2019-04-10T21:06:56.595Z,8.97
2019-04-10T21:09:27.665Z,12.40
2019-04-10T21:12:03.863Z,11.40
2019-04-10T21:14:28.121Z,12.23
2019-04-10T21:17:05.221Z,11.07
2019-04-10T21:19:33.848Z,14.30
2019-04-10T21:22:03.692Z,12.20
2019-04-10T21:24:33.601Z,15.27
2019-04-10T21:27:03.582Z,11.73
2019-04-10T21:29:50.556Z,12.53
2019-04-10T21:32:30.341Z,11.57
2019-04-10T21:35:02.076Z,16.17
2019-04-10T21:37:30.726Z,12.47
2019-04-10T21:40:00.395Z,12.13
2019-04-10T21:42:29.778Z,11.17
2019-04-10T21:44:58.316Z,12.17
2019-04-10T21:47:27.709Z,13.37
2019-04-10T21:49:56.907Z,12.83
2019-04-10T21:52:25.710Z,12.43
2019-04-10T21:54:57.826Z,16.93
2019-04-10T21:57:24.465Z,13.50
2019-04-10T21:59:53.836Z,11.70
2019-04-10T22:02:23.825Z,13.10
2019-04-10T22:04:52.661Z,15.57
2019-04-10T22:07:34.828Z,17.80
2019-04-10T22:10:08.217Z,10.43
2019-04-10T22:12:42.187Z,11.07
2019-04-10T22:15:12.857Z,11.77
2019-04-10T22:17:42.550Z,12.27
2019-04-10T22:20:11.739Z,13.43
2019-04-10T22:22:40.440Z,12.47
2019-04-10T22:25:10.959Z,14.23
2019-04-10T22:27:39.656Z,14.77
2019-04-10T22:30:08.852Z,16.03
2019-04-10T22:32:37.358Z,10.07
2019-04-10T22:35:07.383Z,11.83
2019-04-10T22:37:36.009Z,16.70
2019-04-10T22:40:06.563Z,11.10
2019-04-10T22:42:42.544Z,11.17
2019-04-10T22:45:08.296Z,16.20
2019-04-10T22:47:36.733Z,13.60
2019-04-10T22:50:06.235Z,11.60
2019-04-10T22:52:34.708Z,18.37
2019-04-10T22:55:03.718Z,10.67
2019-04-10T22:57:32.503Z,14.50
2019-04-10T23:00:00.945Z,10.23
2019-04-10T23:02:29.943Z,13.53
2019-04-10T23:04:59.715Z,12.10
2019-04-10T23:07:28.567Z,16.77
2019-04-10T23:09:57.109Z,13.87
2019-04-10T23:12:26.556Z,11.93
2019-04-10T23:14:55.418Z,14.53
2019-04-10T23:17:24.364Z,11.83
2019-04-10T23:19:54.195Z,11.70
2019-04-10T23:22:23.118Z,11.87
2019-04-10T23:24:51.908Z,12.70
2019-04-10T23:27:21.626Z,12.13
2019-04-10T23:29:50.664Z,14.40
2019-04-10T23:32:19.476Z,16.13
2019-04-10T23:34:49.300Z,14.03
2019-04-10T23:37:18.400Z,12.97
2019-04-10T23:39:48.233Z,12.37
2019-04-10T23:42:16.756Z,9.77
2019-04-10T23:44:45.201Z,13.10
2019-04-10T23:47:13.839Z,10.13
2019-04-10T23:49:42.339Z,10.17
2019-04-10T23:52:11.734Z,14.13
2019-04-10T23:54:43.592Z,10.40
2019-04-10T23:57:12.107Z,12.53
2019-04-10T23:59:40.637Z,8.93
